Myah — WDD9865 — position and weather

sailwx.info

Track history (hours):
 
Tides and Currents Weather Stations Pressure Air Temp Water Temp Dewpoint Dewpoint Depression Visibility Wind Speed Wind Dir Waves Ship Positions

Myah

Owner: Johnson, Mark D, Miami, FL. More information available from US FCC via Universal Licensing System and Coast Guard Vessel Documentation Center.

Last reported at 2018-Jul-08 00:44 UTC. Time now 2018-Jul-22 04:45 UTC.
Position N 48°00' W 122°13'.
Warning: this ship's position is 14 days out of date.

Length 17 m; draft 2.1 m.

Type: Pleasure craft. MMSI: 367317370.

Date/timePositionNaut miles runAvg speedWind from/ knotsBaromVisibWave heightAir tempDewpointWater temp
2018-Jul-08 00:44N 48°00' W 122°13'0 0.3
2018-Jul-08 00:29N 48°00' W 122°13'2 4.1
2018-Jul-08 00:00N 47°59' W 122°15'4 8.9
2018-Jul-07 23:30N 47°56' W 122°20'4 7.5
2018-Jul-07 23:00N 47°54' W 122°25'4 8.1
2018-Jul-07 22:30N 47°57' W 122°30'28 8.5
2018-Jul-07 19:14N 48°22' W 122°47'2 9.9
2018-Jul-07 19:00N 48°24' W 122°47'5 9.2
2018-Jul-07 18:30N 48°29' W 122°47'4 7.4
2018-Jul-07 18:00N 48°32' W 122°50'3 5.4
2018-Jul-07 17:29N 48°34' W 122°53'0 0.0
2018-Jul-06 19:11N 48°34' W 122°53'1 4.4
2018-Jul-06 19:00N 48°35' W 122°53'4 8.7
2018-Jul-06 18:31N 48°36' W 122°60'4 8.8
2018-Jul-06 18:01N 48°37' W 123°06'2 4.9
2018-Jul-06 17:30N 48°37' W 123°09'0 0.1
2018-Jul-06 17:00N 48°37' W 123°09'0 0.0
2018-Jul-06 16:22N 48°37' W 123°09'1 1.4
2018-Jul-06 15:59N 48°36' W 123°10'  
2018-Jul-03 22:43N 48°36' W 123°09'1 3.7
2018-Jul-03 22:30N 48°35' W 123°10'4 7.7
2018-Jul-03 22:00N 48°32' W 123°10'4 7.1
2018-Jul-03 21:30N 48°28' W 123°07'4 7.9
2018-Jul-03 21:00N 48°25' W 123°04'3410.8
2018-Jul-03 17:49N 47°57' W 122°33'310.4
2018-Jul-03 17:30N 47°56' W 122°29'5 9.4
2018-Jul-03 17:00N 47°54' W 122°22'5 9.4
2018-Jul-03 16:30N 47°58' W 122°18'4 7.4
2018-Jul-03 15:59N 48°00' W 122°13'  
Track history (hours):
 
Tides and Currents Weather Stations Pressure Air Temp Water Temp Dewpoint Dewpoint Depression Visibility Wind Speed Wind Dir Waves Ship Positions

Myah

Owner: Johnson, Mark D, Miami, FL. More information available from US FCC via Universal Licensing System and Coast Guard Vessel Documentation Center.

Last reported at 2018-Jul-08 00:44 UTC. Time now 2018-Jul-22 04:45 UTC.
Position N 48°00' W 122°13'.
Warning: this ship's position is 14 days out of date.

Length 17 m; draft 2.1 m.

Type: Pleasure craft. MMSI: 367317370.

Date/timePositionNaut miles runAvg speedWind from/ knotsBaromVisibWave heightAir tempDewpointWater temp
2018-Jul-08 00:44N 48°00' W 122°13'0 0.3
2018-Jul-08 00:29N 48°00' W 122°13'2 4.1
2018-Jul-08 00:00N 47°59' W 122°15'4 8.9
2018-Jul-07 23:30N 47°56' W 122°20'4 7.5
2018-Jul-07 23:00N 47°54' W 122°25'4 8.1
2018-Jul-07 22:30N 47°57' W 122°30'28 8.5
2018-Jul-07 19:14N 48°22' W 122°47'2 9.9
2018-Jul-07 19:00N 48°24' W 122°47'5 9.2
2018-Jul-07 18:30N 48°29' W 122°47'4 7.4
2018-Jul-07 18:00N 48°32' W 122°50'3 5.4
2018-Jul-07 17:29N 48°34' W 122°53'0 0.0
2018-Jul-06 19:11N 48°34' W 122°53'1 4.4
2018-Jul-06 19:00N 48°35' W 122°53'4 8.7
2018-Jul-06 18:31N 48°36' W 122°60'4 8.8
2018-Jul-06 18:01N 48°37' W 123°06'2 4.9
2018-Jul-06 17:30N 48°37' W 123°09'0 0.1
2018-Jul-06 17:00N 48°37' W 123°09'0 0.0
2018-Jul-06 16:22N 48°37' W 123°09'1 1.4
2018-Jul-06 15:59N 48°36' W 123°10'  
2018-Jul-03 22:43N 48°36' W 123°09'1 3.7
2018-Jul-03 22:30N 48°35' W 123°10'4 7.7
2018-Jul-03 22:00N 48°32' W 123°10'4 7.1
2018-Jul-03 21:30N 48°28' W 123°07'4 7.9
2018-Jul-03 21:00N 48°25' W 123°04'3410.8
2018-Jul-03 17:49N 47°57' W 122°33'310.4
2018-Jul-03 17:30N 47°56' W 122°29'5 9.4
2018-Jul-03 17:00N 47°54' W 122°22'5 9.4
2018-Jul-03 16:30N 47°58' W 122°18'4 7.4
2018-Jul-03 15:59N 48°00' W 122°13'  

Dump ship's entire track history